Time;durP1;ratioP1;P1;durP2;ratioP2;P2;SDS_P1;SDS_P2;PMS_P1;PMS_P2;Temp;Humidity;BMP_temperature;BMP_pressure;BME280_temperature;BME280_humidity;BME280_pressure;Samples;Min_cycle;Max_cycle;Signal;HPM_P1;HPM_P2
2024/04/16 00:01:15;;;;;;;15.07;6.07;;;;;;;;;;5438318;26;20074;-62
2024/04/16 00:03:42;;;;;;;10.23;5.70;;;;;;;;;;5385398;26;20012;-62
2024/04/16 00:06:08;;;;;;;14.73;7.07;;;;;;;;;;5426806;26;20013;-62
2024/04/16 00:08:34;;;;;;;9.88;7.03;;;;;;;;;;5417831;26;20003;-62
2024/04/16 00:11:01;;;;;;;13.73;6.63;;;;;;;;;;5432470;26;20015;-62
2024/04/16 00:13:28;;;;;;;12.07;7.78;;;;;;;;;;5445498;26;20446;-62
2024/04/16 00:16:14;;;;;;;12.27;7.13;;;;;;;;;;5406325;26;20347;-62
2024/04/16 00:18:40;;;;;;;12.90;7.13;;;;;;;;;;5420002;26;20002;-62
2024/04/16 00:21:06;;;;;;;12.93;6.20;;;;;;;;;;5380908;26;20084;-62
2024/04/16 00:23:32;;;;;;;11.77;6.83;;;;;;;;;;5387180;26;20073;-62
2024/04/16 00:25:58;;;;;;;13.52;7.38;;;;;;;;;;5416117;26;20064;-62
2024/04/16 00:28:25;;;;;;;12.70;6.03;;;;;;;;;;5415929;26;20413;-62
2024/04/16 00:30:51;;;;;;;10.97;6.53;;;;;;;;;;5391984;26;19999;-62
2024/04/16 00:33:17;;;;;;;11.37;6.47;;;;;;;;;;5384766;26;20028;-62
2024/04/16 00:35:43;;;;;;;17.40;6.17;;;;;;;;;;5406746;26;20003;-62
2024/04/16 00:38:10;;;;;;;7.53;5.83;;;;;;;;;;5416265;26;19999;-62
2024/04/16 00:40:36;;;;;;;13.45;7.68;;;;;;;;;;5433175;26;20003;-62
2024/04/16 00:43:15;;;;;;;13.07;5.38;;;;;;;;;;5448918;26;20075;-62
2024/04/16 00:45:45;;;;;;;15.77;6.32;;;;;;;;;;5441933;26;20410;-62
2024/04/16 00:48:11;;;;;;;12.05;7.20;;;;;;;;;;5416059;26;20407;-62
2024/04/16 00:50:37;;;;;;;11.13;5.90;;;;;;;;;;5415623;26;20364;-62
2024/04/16 00:53:04;;;;;;;17.43;6.17;;;;;;;;;;5415665;26;20023;-62
2024/04/16 00:55:30;;;;;;;11.93;6.50;;;;;;;;;;5419942;26;20221;-62
2024/04/16 00:57:56;;;;;;;13.00;6.40;;;;;;;;;;5415896;26;19995;-62
2024/04/16 01:00:22;;;;;;;11.02;5.80;;;;;;;;;;5386420;26;20373;-62
2024/04/16 01:02:48;;;;;;;13.07;6.07;;;;;;;;;;5395891;26;20006;-62
2024/04/16 01:05:15;;;;;;;14.02;6.88;;;;;;;;;;5403365;26;20003;-62
2024/04/16 01:07:44;;;;;;;16.08;6.18;;;;;;;;;;5445559;26;20014;-62
2024/04/16 01:10:11;;;;;;;10.93;6.63;;;;;;;;;;5444313;26;20003;-62
2024/04/16 01:12:41;;;;;;;13.55;6.00;;;;;;;;;;5415546;26;20011;-62
2024/04/16 01:15:07;;;;;;;10.10;5.63;;;;;;;;;;5388343;26;20468;-62
2024/04/16 01:17:33;;;;;;;9.53;5.97;;;;;;;;;;5415309;26;20376;-62
2024/04/16 01:19:59;;;;;;;14.47;6.13;;;;;;;;;;5383828;26;19996;-62
2024/04/16 01:22:26;;;;;;;10.55;5.82;;;;;;;;;;5386840;26;20355;-62
2024/04/16 01:24:52;;;;;;;14.73;7.50;;;;;;;;;;5437721;26;20014;-62
2024/04/16 01:27:21;;;;;;;8.37;6.10;;;;;;;;;;5448063;26;20333;-62
2024/04/16 01:29:47;;;;;;;17.45;6.57;;;;;;;;;;5450853;26;20003;-62
2024/04/16 01:32:15;;;;;;;11.93;6.75;;;;;;;;;;5419853;26;20275;-62
2024/04/16 01:34:42;;;;;;;15.07;7.07;;;;;;;;;;5417590;26;20009;-62
2024/04/16 01:37:14;;;;;;;14.00;7.38;;;;;;;;;;5396752;26;19999;-62
2024/04/16 01:39:40;;;;;;;16.52;7.43;;;;;;;;;;5450376;26;20488;-62
2024/04/16 01:42:07;;;;;;;12.23;6.93;;;;;;;;;;5434012;26;20076;-62
2024/04/16 01:44:33;;;;;;;19.83;7.73;;;;;;;;;;5383766;26;20012;-62
2024/04/16 01:46:59;;;;;;;11.43;7.70;;;;;;;;;;5411781;26;20076;-62
2024/04/16 01:49:25;;;;;;;12.18;6.72;;;;;;;;;;5429834;26;20000;-62
2024/04/16 01:51:52;;;;;;;10.85;6.70;;;;;;;;;;5414726;26;19999;-62
2024/04/16 01:54:18;;;;;;;15.27;7.07;;;;;;;;;;5414622;26;19999;-62
2024/04/16 01:56:50;;;;;;;13.73;7.30;;;;;;;;;;5405033;26;19999;-62
2024/04/16 01:59:17;;;;;;;15.40;6.63;;;;;;;;;;5417747;26;20343;-62
2024/04/16 02:01:43;;;;;;;13.97;5.80;;;;;;;;;;5425611;26;20010;-62
2024/04/16 02:04:09;;;;;;;17.73;7.03;;;;;;;;;;5414295;26;20003;-62
2024/04/16 02:06:36;;;;;;;13.88;6.72;;;;;;;;;;5432829;26;20003;-62
2024/04/16 02:09:02;;;;;;;13.30;7.43;;;;;;;;;;5388389;26;20007;-62
2024/04/16 02:11:28;;;;;;;14.33;7.17;;;;;;;;;;5426936;26;20075;-62
2024/04/16 02:14:00;;;;;;;12.70;6.70;;;;;;;;;;5448770;26;20001;-62
2024/04/16 02:16:26;;;;;;;9.02;6.40;;;;;;;;;;5433418;26;20004;-62
2024/04/16 02:18:53;;;;;;;10.90;6.47;;;;;;;;;;5382782;26;20012;-62
2024/04/16 02:21:19;;;;;;;15.55;7.15;;;;;;;;;;5349891;26;20476;-62
2024/04/16 02:23:47;;;;;;;19.45;6.95;;;;;;;;;;5386793;26;20014;-62
2024/04/16 02:26:13;;;;;;;9.95;6.40;;;;;;;;;;5413848;26;20018;-62
2024/04/16 02:28:39;;;;;;;11.48;6.70;;;;;;;;;;5405375;26;20075;-62
2024/04/16 02:31:05;;;;;;;12.73;7.43;;;;;;;;;;5406197;26;19999;-62
2024/04/16 02:33:31;;;;;;;12.82;6.18;;;;;;;;;;5433172;26;20038;-62
2024/04/16 02:36:01;;;;;;;11.77;7.40;;;;;;;;;;5450594;26;20017;-62
2024/04/16 02:38:27;;;;;;;9.07;7.43;;;;;;;;;;5421490;26;20003;-62
2024/04/16 02:40:53;;;;;;;13.20;7.03;;;;;;;;;;5432568;26;20370;-62
2024/04/16 02:43:20;;;;;;;10.80;7.33;;;;;;;;;;5425197;26;20094;-62
2024/04/16 02:45:49;;;;;;;20.98;10.10;;;;;;;;;;5421321;26;19999;-62
2024/04/16 02:48:15;;;;;;;20.25;7.38;;;;;;;;;;5452945;26;20026;-62
2024/04/16 02:50:41;;;;;;;11.95;7.30;;;;;;;;;;5447672;26;20018;-62
2024/04/16 02:53:07;;;;;;;13.65;7.70;;;;;;;;;;5377591;26;19994;-62
2024/04/16 02:55:34;;;;;;;14.25;8.65;;;;;;;;;;5399327;26;20429;-62
2024/04/16 02:58:01;;;;;;;;;;;;;;;;;;5450397;26;19999;-62
2024/04/16 03:00:27;;;;;;;19.00;9.60;;;;;;;;;;5418457;26;19932;-62
2024/04/16 03:02:53;;;;;;;10.20;7.60;;;;;;;;;;5450326;26;19999;-62
2024/04/16 03:05:19;;;;;;;22.58;7.82;;;;;;;;;;5421664;26;20224;-62
2024/04/16 03:07:45;;;;;;;19.93;8.80;;;;;;;;;;5449206;26;19990;-62
2024/04/16 03:10:15;;;;;;;10.50;7.97;;;;;;;;;;5432570;26;20348;-62
2024/04/16 03:12:42;;;;;;;13.48;9.00;;;;;;;;;;5451139;26;20023;-62
2024/04/16 03:15:08;;;;;;;12.95;8.55;;;;;;;;;;5442523;26;20469;-62
2024/04/16 03:17:35;;;;;;;20.80;8.88;;;;;;;;;;5417067;26;19999;-62
2024/04/16 03:20:01;;;;;;;13.33;8.23;;;;;;;;;;5417053;26;20039;-62
2024/04/16 03:22:27;;;;;;;18.10;9.87;;;;;;;;;;5417567;26;20320;-62
2024/04/16 03:24:53;;;;;;;13.07;8.32;;;;;;;;;;5418822;26;20006;-62
2024/04/16 03:27:19;;;;;;;12.60;8.77;;;;;;;;;;5452919;26;20015;-62
2024/04/16 03:29:46;;;;;;;13.00;8.33;;;;;;;;;;5391369;26;19995;-62
2024/04/16 03:32:12;;;;;;;16.17;9.38;;;;;;;;;;5389897;26;20032;-62
2024/04/16 03:34:38;;;;;;;17.27;8.97;;;;;;;;;;5443739;26;19998;-62
2024/04/16 03:37:04;;;;;;;19.50;9.40;;;;;;;;;;5450063;26;20346;-62
2024/04/16 03:39:33;;;;;;;14.63;9.23;;;;;;;;;;5421277;26;20467;-62
2024/04/16 03:42:00;;;;;;;16.40;8.88;;;;;;;;;;5424631;26;20105;-62
2024/04/16 03:44:26;;;;;;;14.60;9.50;;;;;;;;;;5385211;26;20015;-62
2024/04/16 03:46:52;;;;;;;16.90;8.93;;;;;;;;;;5419637;26;20022;-63
2024/04/16 03:49:18;;;;;;;13.82;9.00;;;;;;;;;;5385646;26;20010;-62
2024/04/16 03:51:44;;;;;;;20.07;9.33;;;;;;;;;;5408047;26;20005;-61
2024/04/16 03:54:10;;;;;;;20.97;9.43;;;;;;;;;;5439071;26;20102;-63
2024/04/16 03:56:37;;;;;;;18.75;9.05;;;;;;;;;;5420144;26;20003;-63
2024/04/16 03:59:16;;;;;;;15.57;8.83;;;;;;;;;;5419768;26;19998;-63
2024/04/16 04:01:43;;;;;;;15.00;8.65;;;;;;;;;;5452317;26;20035;-63
2024/04/16 04:04:09;;;;;;;17.02;9.55;;;;;;;;;;5420526;26;20409;-63
2024/04/16 04:06:35;;;;;;;16.77;9.63;;;;;;;;;;5452492;26;20031;-62
2024/04/16 04:09:01;;;;;;;20.33;9.90;;;;;;;;;;5452372;26;20029;-62
2024/04/16 04:11:28;;;;;;;16.83;9.57;;;;;;;;;;5420581;26;20007;-62
2024/04/16 04:30:51;;;;;;;24.80;10.85;;;;;;;;;;5543292;25;20410;-57
2024/04/16 04:33:17;;;;;;;19.83;11.88;;;;;;;;;;5504718;26;19993;-56
2024/04/16 04:35:43;;;;;;;18.67;11.07;;;;;;;;;;5506980;26;19994;-57
2024/04/16 04:38:09;;;;;;;16.90;10.57;;;;;;;;;;5506657;26;20065;-56
2024/04/16 04:40:36;;;;;;;17.10;11.23;;;;;;;;;;5506160;26;19986;-58
2024/04/16 04:43:03;;;;;;;19.42;10.50;;;;;;;;;;5478882;21;20302;-61
2024/04/16 04:45:29;;;;;;;18.90;11.65;;;;;;;;;;5362673;26;19997;-61
2024/04/16 04:47:55;;;;;;;16.80;9.63;;;;;;;;;;5361254;26;20321;-61
2024/04/16 04:50:21;;;;;;;13.27;10.63;;;;;;;;;;5360815;26;20004;-62
2024/04/16 04:52:48;;;;;;;24.15;10.70;;;;;;;;;;5360971;26;19992;-62
2024/04/16 04:55:14;;;;;;;19.38;11.65;;;;;;;;;;5361040;26;19997;-62
2024/04/16 04:57:41;;;;;;;15.20;11.07;;;;;;;;;;5361152;26;20472;-62
2024/04/16 05:00:08;;;;;;;17.80;10.63;;;;;;;;;;5362540;26;20021;-62
2024/04/16 05:02:34;;;;;;;24.30;12.90;;;;;;;;;;5362557;26;20009;-62
2024/04/16 05:05:00;;;;;;;19.77;12.03;;;;;;;;;;5362353;26;20466;-63
2024/04/16 05:07:26;;;;;;;20.95;11.88;;;;;;;;;;5362588;26;20530;-62
2024/04/16 05:09:53;;;;;;;24.73;13.20;;;;;;;;;;5360796;26;20041;-61
2024/04/16 05:12:19;;;;;;;24.65;12.20;;;;;;;;;;5362428;26;19992;-62
2024/04/16 05:14:45;;;;;;;15.90;11.83;;;;;;;;;;5362418;26;20407;-62
2024/04/16 05:17:13;;;;;;;23.20;12.10;;;;;;;;;;5362494;26;20492;-62
2024/04/16 05:19:40;;;;;;;18.95;11.88;;;;;;;;;;5360378;26;19993;-62
2024/04/16 05:22:06;;;;;;;23.08;12.63;;;;;;;;;;5362296;26;19997;-62
2024/04/16 05:24:32;;;;;;;19.85;12.45;;;;;;;;;;5362743;26;20029;-61
2024/04/16 05:26:58;;;;;;;26.13;13.43;;;;;;;;;;5360391;26;20007;-62
2024/04/16 05:29:25;;;;;;;18.77;12.00;;;;;;;;;;5360135;26;20007;-62
2024/04/16 05:31:51;;;;;;;17.67;12.65;;;;;;;;;;5346909;26;19993;-62
2024/04/16 05:34:17;;;;;;;20.90;12.88;;;;;;;;;;5345562;26;20004;-61
2024/04/16 05:36:43;;;;;;;19.47;13.03;;;;;;;;;;5347090;26;20009;-61
2024/04/16 05:39:09;;;;;;;24.85;13.43;;;;;;;;;;5346860;26;20008;-61
2024/04/16 05:41:35;;;;;;;23.73;13.57;;;;;;;;;;5347339;26;19993;-62
2024/04/16 05:44:02;;;;;;;16.75;13.30;;;;;;;;;;5370745;26;20347;-62
2024/04/16 05:46:28;;;;;;;19.67;12.50;;;;;;;;;;5381836;26;20051;-62
2024/04/16 05:48:54;;;;;;;21.63;12.15;;;;;;;;;;5381660;26;20020;-61
2024/04/16 05:51:20;;;;;;;22.33;11.70;;;;;;;;;;5381883;26;20008;-62
2024/04/16 05:53:47;;;;;;;23.00;12.27;;;;;;;;;;5381840;26;20344;-63
2024/04/16 05:56:13;;;;;;;19.77;13.47;;;;;;;;;;5381804;26;20011;-62
2024/04/16 05:58:39;;;;;;;15.90;11.05;;;;;;;;;;5381646;26;20020;-62
2024/04/16 06:01:06;;;;;;;22.77;12.23;;;;;;;;;;5350726;26;20011;-62
2024/04/16 06:03:32;;;;;;;22.48;12.38;;;;;;;;;;5350983;26;19996;-61
2024/04/16 06:05:58;;;;;;;24.27;12.15;;;;;;;;;;5381764;26;20061;-61
2024/04/16 06:08:24;;;;;;;21.73;11.93;;;;;;;;;;5351004;26;19996;-61
2024/04/16 06:10:51;;;;;;;23.87;12.77;;;;;;;;;;5321672;26;20492;-62
2024/04/16 06:13:17;;;;;;;19.23;12.05;;;;;;;;;;5381420;26;20012;-62
2024/04/16 06:15:44;;;;;;;15.45;10.73;;;;;;;;;;5381935;26;19996;-62
2024/04/16 06:18:12;;;;;;;19.38;12.80;;;;;;;;;;5350845;26;20345;-62
2024/04/16 06:20:38;;;;;;;18.50;11.95;;;;;;;;;;5381113;26;20407;-61
2024/04/16 06:23:04;;;;;;;20.08;12.45;;;;;;;;;;5350764;26;19996;-61
2024/04/16 06:25:31;;;;;;;19.43;12.30;;;;;;;;;;5350811;26;20449;-62
2024/04/16 06:27:57;;;;;;;20.90;10.90;;;;;;;;;;5381329;26;19993;-63
2024/04/16 06:30:23;;;;;;;27.17;11.40;;;;;;;;;;5381052;26;19992;-63
2024/04/16 06:32:50;;;;;;;22.03;11.03;;;;;;;;;;5381562;26;20337;-62
2024/04/16 06:35:16;;;;;;;16.92;10.57;;;;;;;;;;5350972;26;19998;-62
2024/04/16 06:37:42;;;;;;;22.40;11.53;;;;;;;;;;5381558;26;20490;-63
2024/04/16 06:40:08;;;;;;;17.67;11.33;;;;;;;;;;5380917;26;19993;-63
2024/04/16 06:42:37;;;;;;;21.60;10.50;;;;;;;;;;5379570;26;20066;-62
2024/04/16 06:45:04;;;;;;;16.80;11.13;;;;;;;;;;5381334;26;20004;-62
2024/04/16 06:47:30;;;;;;;18.85;12.32;;;;;;;;;;5350200;26;20035;-62
2024/04/16 06:49:56;;;;;;;20.20;11.90;;;;;;;;;;5380990;26;20024;-62
2024/04/16 06:52:23;;;;;;;20.42;11.40;;;;;;;;;;5380993;26;20006;-62
2024/04/16 06:54:51;;;;;;;27.42;11.23;;;;;;;;;;5380999;26;20003;-62
2024/04/16 06:57:17;;;;;;;21.10;11.82;;;;;;;;;;5380839;26;20138;-62
2024/04/16 06:59:43;;;;;;;23.97;10.33;;;;;;;;;;5380827;26;20468;-62
2024/04/16 07:02:09;;;;;;;15.57;9.35;;;;;;;;;;5381180;26;20496;-61
2024/04/16 07:04:36;;;;;;;12.77;8.87;;;;;;;;;;5379035;26;20011;-61
2024/04/16 07:07:02;;;;;;;15.73;9.10;;;;;;;;;;5379472;26;19992;-61
2024/04/16 07:09:28;;;;;;;15.80;9.47;;;;;;;;;;5380838;26;20006;-61
2024/04/16 07:11:54;;;;;;;23.27;9.68;;;;;;;;;;5380844;26;20297;-61
2024/04/16 07:14:20;;;;;;;16.80;9.37;;;;;;;;;;5379255;26;20001;-61
2024/04/16 07:16:47;;;;;;;26.53;9.53;;;;;;;;;;5381013;26;20309;-61
2024/04/16 07:19:13;;;;;;;16.42;8.52;;;;;;;;;;5380641;26;20000;-61
2024/04/16 07:21:39;;;;;;;21.07;10.40;;;;;;;;;;5380754;26;20000;-62
2024/04/16 07:24:06;;;;;;;20.02;10.68;;;;;;;;;;5320775;26;20000;-61
2024/04/16 07:26:32;;;;;;;27.73;12.33;;;;;;;;;;5349805;26;20014;-60
2024/04/16 07:28:58;;;;;;;15.13;8.90;;;;;;;;;;5380329;26;20070;-61
2024/04/16 07:31:24;;;;;;;18.13;8.77;;;;;;;;;;5380841;26;20130;-60
2024/04/16 07:33:50;;;;;;;16.63;9.70;;;;;;;;;;5349867;26;20007;-60
2024/04/16 07:36:16;;;;;;;17.38;10.80;;;;;;;;;;5380721;26;20333;-61
2024/04/16 07:38:43;;;;;;;22.63;8.17;;;;;;;;;;5380673;26;20000;-61
2024/04/16 07:41:09;;;;;;;16.40;8.30;;;;;;;;;;5380317;26;19996;-61
2024/04/16 07:43:35;;;;;;;9.30;7.67;;;;;;;;;;5378630;26;20024;-60
2024/04/16 07:46:02;;;;;;;15.65;8.82;;;;;;;;;;5380253;26;20004;-60
2024/04/16 07:48:28;;;;;;;18.17;7.40;;;;;;;;;;5378910;26;20000;-60
2024/04/16 07:50:54;;;;;;;17.10;8.47;;;;;;;;;;5379932;26;20007;-60
2024/04/16 07:53:21;;;;;;;15.38;9.15;;;;;;;;;;5378245;26;20555;-59
2024/04/16 07:55:47;;;;;;;17.02;7.97;;;;;;;;;;5380499;26;20317;-60
2024/04/16 07:58:13;;;;;;;14.88;9.18;;;;;;;;;;5380445;26;20118;-61
2024/04/16 08:00:40;;;;;;;10.85;8.18;;;;;;;;;;5380009;26;20026;-60
2024/04/16 08:03:10;;;;;;;18.70;8.57;;;;;;;;;;5349423;26;20007;-60
2024/04/16 08:05:39;;;;;;;15.80;9.18;;;;;;;;;;5380004;26;20077;-61
2024/04/16 08:08:05;;;;;;;17.60;9.20;;;;;;;;;;5349335;26;20006;-61
2024/04/16 08:10:32;;;;;;;17.70;10.18;;;;;;;;;;5379858;26;19996;-60
2024/04/16 08:12:58;;;;;;;18.25;9.10;;;;;;;;;;5349350;26;19992;-60
2024/04/16 08:15:24;;;;;;;22.10;10.03;;;;;;;;;;5379879;26;19992;-60
2024/04/16 08:17:50;;;;;;;16.75;9.75;;;;;;;;;;5379663;26;20029;-60
2024/04/16 08:20:17;;;;;;;21.03;9.10;;;;;;;;;;5379367;26;19992;-60
2024/04/16 08:22:43;;;;;;;17.90;8.33;;;;;;;;;;5379708;26;20023;-61
2024/04/16 08:25:09;;;;;;;14.30;7.45;;;;;;;;;;5380037;26;19996;-60
2024/04/16 08:27:35;;;;;;;13.77;7.87;;;;;;;;;;5379997;26;19996;-60
2024/04/16 08:30:01;;;;;;;14.53;7.73;;;;;;;;;;5379237;26;19996;-60
2024/04/16 08:32:28;;;;;;;14.00;7.63;;;;;;;;;;5349002;26;20011;-60
2024/04/16 08:34:54;;;;;;;17.33;7.30;;;;;;;;;;5348854;26;19996;-60
2024/04/16 08:37:20;;;;;;;15.30;7.10;;;;;;;;;;5377987;26;20457;-60
2024/04/16 08:39:46;;;;;;;20.80;7.80;;;;;;;;;;5379614;26;20003;-61
2024/04/16 08:42:13;;;;;;;15.83;8.67;;;;;;;;;;5348691;26;20020;-61
2024/04/16 08:44:39;;;;;;;;;;;;;;;;;;5379800;26;19992;-61
2024/04/16 08:47:06;;;;;;;14.05;5.95;;;;;;;;;;5348665;26;19925;-60
2024/04/16 08:49:33;;;;;;;14.38;6.15;;;;;;;;;;5378933;26;20006;-62
2024/04/16 08:51:59;;;;;;;16.35;5.65;;;;;;;;;;5379028;26;20015;-61
2024/04/16 08:54:26;;;;;;;12.93;5.13;;;;;;;;;;5348371;26;20023;-61
2024/04/16 08:56:53;;;;;;;22.42;6.25;;;;;;;;;;5379082;26;20000;-61
2024/04/16 08:59:19;;;;;;;9.40;4.65;;;;;;;;;;5378722;26;20004;-60
2024/04/16 09:01:49;;;;;;;13.82;5.60;;;;;;;;;;5348029;26;19992;-61
2024/04/16 09:04:18;;;;;;;10.07;4.15;;;;;;;;;;5376966;26;20008;-60
2024/04/16 09:06:45;;;;;;;93.10;14.52;;;;;;;;;;5350952;26;20452;-61
2024/04/16 09:09:11;;;;;;;8.02;6.03;;;;;;;;;;5382525;26;19992;-60
2024/04/16 09:11:38;;;;;;;10.20;5.00;;;;;;;;;;5380972;26;19996;-63
2024/04/16 09:14:04;;;;;;;8.82;4.85;;;;;;;;;;5382567;26;20270;-61
2024/04/16 09:16:31;;;;;;;16.07;5.23;;;;;;;;;;5382672;26;19996;-61
2024/04/16 09:18:57;;;;;;;;;;;;;;;;;;5382739;26;20231;-61
2024/04/16 09:21:23;;;;;;;13.88;4.82;;;;;;;;;;5380984;26;19926;-60
2024/04/16 09:23:56;;;;;;;11.82;4.78;;;;;;;;;;5382545;26;19996;-61
2024/04/16 09:26:22;;;;;;;5.93;3.05;;;;;;;;;;5382482;26;19996;-61
2024/04/16 09:28:49;;;;;;;10.87;4.37;;;;;;;;;;5382268;26;20332;-60
2024/04/16 09:31:18;;;;;;;9.07;3.67;;;;;;;;;;5351125;26;20070;-61
2024/04/16 09:33:45;;;;;;;11.30;4.20;;;;;;;;;;5382036;26;20029;-61
2024/04/16 09:36:13;;;;;;;17.33;3.75;;;;;;;;;;5382410;26;20026;-61
2024/04/16 09:38:45;;;;;;;9.82;3.67;;;;;;;;;;5382245;26;20043;-61
2024/04/16 09:41:12;;;;;;;6.72;3.45;;;;;;;;;;5382010;26;20452;-61
2024/04/16 09:43:41;;;;;;;15.05;5.00;;;;;;;;;;5382037;26;20010;-61
2024/04/16 09:46:18;;;;;;;14.75;3.65;;;;;;;;;;5381917;26;20015;-61
2024/04/16 09:48:45;;;;;;;14.77;3.53;;;;;;;;;;5382043;26;20028;-61
2024/04/16 09:51:11;;;;;;;;;;;;;;;;;;5351619;26;20003;-62
2024/04/16 09:53:39;;;;;;;26.92;5.40;;;;;;;;;;5351466;26;20308;-62
2024/04/16 09:56:06;;;;;;;9.10;3.63;;;;;;;;;;5382044;26;20004;-61
2024/04/16 09:58:36;;;;;;;26.35;5.18;;;;;;;;;;5380307;26;19997;-60
2024/04/16 10:01:03;;;;;;;6.28;3.22;;;;;;;;;;5381547;26;19992;-60
2024/04/16 10:03:29;;;;;;;12.60;3.38;;;;;;;;;;5381860;26;19992;-60
2024/04/16 10:05:56;;;;;;;23.40;3.35;;;;;;;;;;5379984;26;20534;-60
2024/04/16 10:08:22;;;;;;;8.00;2.60;;;;;;;;;;5381912;26;20007;-61
2024/04/16 10:10:49;;;;;;;7.25;3.20;;;;;;;;;;5351131;26;20219;-60
2024/04/16 10:13:16;;;;;;;8.77;1.95;;;;;;;;;;5381552;26;20513;-63
2024/04/16 10:15:42;;;;;;;12.03;3.17;;;;;;;;;;5381635;26;20479;-62
2024/04/16 10:18:11;;;;;;;3.13;1.50;;;;;;;;;;5349253;26;20337;-62
2024/04/16 10:20:47;;;;;;;8.60;2.20;;;;;;;;;;5378949;26;20008;-62
2024/04/16 10:23:19;;;;;;;5.50;2.20;;;;;;;;;;5366320;26;20005;-62
2024/04/16 10:25:49;;;;;;;6.07;2.30;;;;;;;;;;5338368;26;20069;-63
2024/04/16 10:28:42;;;;;;;8.05;2.47;;;;;;;;;;5333576;26;20341;-62
2024/04/16 10:31:09;;;;;;;3.00;1.55;;;;;;;;;;5329530;26;20028;-62
2024/04/16 10:33:36;;;;;;;5.70;1.80;;;;;;;;;;5331226;26;20016;-62
2024/04/16 10:36:07;;;;;;;6.55;3.10;;;;;;;;;;5359097;26;19997;-62
2024/04/16 10:38:34;;;;;;;4.50;1.73;;;;;;;;;;5354916;26;20177;-63
2024/04/16 10:41:00;;;;;;;5.63;2.30;;;;;;;;;;5378808;26;20000;-62
2024/04/16 10:43:27;;;;;;;8.00;2.15;;;;;;;;;;5412358;21;20459;-61
2024/04/16 10:45:54;;;;;;;7.10;1.30;;;;;;;;;;5368962;26;20355;-60
2024/04/16 10:48:21;;;;;;;1.80;1.15;;;;;;;;;;5355293;26;20005;-62
2024/04/16 10:50:49;;;;;;;3.92;1.10;;;;;;;;;;5376196;26;20050;-61
2024/04/16 10:53:15;;;;;;;;;;;;;;;;;;5344306;26;20498;-61
2024/04/16 10:55:42;;;;;;;12.00;1.75;;;;;;;;;;5360567;26;19929;-61
2024/04/16 10:58:12;;;;;;;2.72;1.30;;;;;;;;;;5378927;26;20460;-61
2024/04/16 11:00:39;;;;;;;6.95;0.98;;;;;;;;;;5372778;26;20464;-61
2024/04/16 11:03:05;;;;;;;;;;;;;;;;;;5367571;26;20011;-60
2024/04/16 11:05:31;;;;;;;2.53;1.00;;;;;;;;;;5361405;26;20065;-62
2024/04/16 11:07:58;;;;;;;6.53;1.20;;;;;;;;;;5343469;26;20313;-63
2024/04/16 11:10:24;;;;;;;2.22;1.15;;;;;;;;;;5362833;26;19997;-63
2024/04/16 11:12:50;;;;;;;2.33;0.50;;;;;;;;;;5344607;26;20425;-62
2024/04/16 11:15:16;;;;;;;4.95;1.00;;;;;;;;;;5330926;26;20336;-63
2024/04/16 11:17:43;;;;;;;6.32;1.20;;;;;;;;;;5362779;26;20011;-64
2024/04/16 11:20:09;;;;;;;8.77;0.73;;;;;;;;;;5338445;26;20476;-61
2024/04/16 11:22:36;;;;;;;4.55;0.38;;;;;;;;;;5355248;26;20004;-63
2024/04/16 11:25:02;;;;;;;;;;;;;;;;;;5356936;26;20033;-62
2024/04/16 11:27:29;;;;;;;5.80;0.50;;;;;;;;;;5359636;26;19968;-64
2024/04/16 11:29:55;;;;;;;4.70;0.73;;;;;;;;;;5369337;26;20005;-62
2024/04/16 11:32:22;;;;;;;1.27;0.37;;;;;;;;;;5346136;26;20001;-64
2024/04/16 11:34:48;;;;;;;6.93;1.35;;;;;;;;;;5364283;26;20291;-63
2024/04/16 11:37:15;;;;;;;0.22;0.20;;;;;;;;;;5376190;26;20000;-63
2024/04/16 11:39:42;;;;;;;;;;;;;;;;;;5365384;26;20041;-63
2024/04/16 11:42:09;;;;;;;1.15;0.30;;;;;;;;;;5345709;26;19935;-62
2024/04/16 11:44:36;;;;;;;2.97;0.50;;;;;;;;;;5345546;26;20107;-63
2024/04/16 11:47:02;;;;;;;0.73;0.30;;;;;;;;;;5344291;26;20019;-63
2024/04/16 11:49:28;;;;;;;3.45;0.30;;;;;;;;;;5357296;26;20001;-62
2024/04/16 11:51:54;;;;;;;8.18;0.43;;;;;;;;;;5340886;26;20025;-63
2024/04/16 11:54:20;;;;;;;10.60;1.30;;;;;;;;;;5354795;26;20132;-63
2024/04/16 11:56:47;;;;;;;20.67;1.95;;;;;;;;;;5364296;26;20004;-62
2024/04/16 11:59:13;;;;;;;5.53;1.00;;;;;;;;;;5359521;26;20012;-62
2024/04/16 12:01:39;;;;;;;3.17;0.32;;;;;;;;;;5362596;26;20016;-63
2024/04/16 12:04:07;;;;;;;3.20;0.43;;;;;;;;;;5351329;26;20062;-63
2024/04/16 12:06:33;;;;;;;3.90;0.45;;;;;;;;;;5351960;26;20003;-62
2024/04/16 12:08:59;;;;;;;3.88;0.40;;;;;;;;;;5375402;26;20004;-62
2024/04/16 12:11:25;;;;;;;2.22;0.40;;;;;;;;;;5375888;26;20008;-60
2024/04/16 12:13:54;;;;;;;3.00;0.50;;;;;;;;;;5377843;26;19996;-63
2024/04/16 12:16:21;;;;;;;2.72;0.10;;;;;;;;;;5347945;26;20406;-62
2024/04/16 12:18:47;;;;;;;3.70;0.30;;;;;;;;;;5344303;26;20005;-62
2024/04/16 12:21:13;;;;;;;3.77;0.60;;;;;;;;;;5359954;26;20016;-63
2024/04/16 12:23:39;;;;;;;0.73;0.30;;;;;;;;;;5312602;26;20614;-64
2024/04/16 12:26:05;;;;;;;10.45;0.47;;;;;;;;;;5369496;26;20230;-62
2024/04/16 12:28:32;;;;;;;0.75;0.22;;;;;;;;;;5375915;26;20514;-64
2024/04/16 12:30:58;;;;;;;3.03;0.38;;;;;;;;;;5364374;26;20015;-63
2024/04/16 12:33:24;;;;;;;2.13;0.30;;;;;;;;;;5356631;26;20005;-63
2024/04/16 12:35:50;;;;;;;9.63;0.95;;;;;;;;;;5347991;26;20461;-63
2024/04/16 12:38:16;;;;;;;6.07;0.80;;;;;;;;;;5348271;26;20000;-63
2024/04/16 12:40:44;;;;;;;2.72;0.30;;;;;;;;;;5325545;26;20001;-64
2024/04/16 12:43:11;;;;;;;1.55;0.43;;;;;;;;;;5355821;26;20016;-63
2024/04/16 12:45:37;;;;;;;;;;;;;;;;;;5370873;26;20052;-63
2024/04/16 12:48:04;;;;;;;4.00;0.75;;;;;;;;;;5368029;26;19940;-63
2024/04/16 12:50:30;;;;;;;3.05;1.38;;;;;;;;;;5373306;26;20001;-63
2024/04/16 12:52:56;;;;;;;2.72;0.60;;;;;;;;;;5376255;26;21344;-64
2024/04/16 12:55:22;;;;;;;1.52;0.55;;;;;;;;;;5369166;26;20005;-63
2024/04/16 12:57:49;;;;;;;2.17;0.32;;;;;;;;;;5377578;26;20000;-64
2024/04/16 13:00:15;;;;;;;1.45;0.40;;;;;;;;;;5371507;26;20000;-62
2024/04/16 13:02:42;;;;;;;7.78;0.43;;;;;;;;;;5377806;26;20330;-64
2024/04/16 13:05:08;;;;;;;1.92;0.73;;;;;;;;;;5361088;26;20004;-64
2024/04/16 13:07:34;;;;;;;4.78;0.95;;;;;;;;;;5380802;26;20467;-63
2024/04/16 13:10:00;;;;;;;2.88;0.40;;;;;;;;;;5353475;26;20025;-64
2024/04/16 13:12:26;;;;;;;4.75;0.77;;;;;;;;;;5345692;26;19997;-64
2024/04/16 13:14:53;;;;;;;1.38;0.40;;;;;;;;;;5369403;26;20040;-63
2024/04/16 13:17:19;;;;;;;3.03;0.40;;;;;;;;;;5375197;26;20422;-63
2024/04/16 13:19:48;;;;;;;2.88;0.50;;;;;;;;;;5392184;26;20014;-63
2024/04/16 13:22:14;;;;;;;10.23;0.60;;;;;;;;;;5390133;26;20046;-61
2024/04/16 13:24:40;;;;;;;21.80;1.85;;;;;;;;;;5390872;26;20004;-61
2024/04/16 13:27:07;;;;;;;3.33;0.60;;;;;;;;;;5405013;26;20076;-63
2024/04/16 13:29:33;;;;;;;5.22;0.55;;;;;;;;;;5396201;26;20008;-58
2024/04/16 13:31:59;;;;;;;3.75;0.43;;;;;;;;;;5392825;26;20404;-60
2024/04/16 13:34:26;;;;;;;11.90;0.93;;;;;;;;;;5391066;26;20050;-54
2024/04/16 13:36:52;;;;;;;;;;;;;;;;;;5393785;26;20000;-57
2024/04/16 13:39:18;;;;;;;4.45;0.85;;;;;;;;;;5392410;26;19925;-54
2024/04/16 13:41:44;;;;;;;3.58;0.85;;;;;;;;;;5391960;26;20000;-57
2024/04/16 13:44:10;;;;;;;1.38;0.52;;;;;;;;;;5397165;26;20001;-57
2024/04/16 13:46:37;;;;;;;1.90;0.45;;;;;;;;;;5399607;26;20476;-57
2024/04/16 13:49:03;;;;;;;1.75;0.50;;;;;;;;;;5371103;26;20017;-53
2024/04/16 13:51:29;;;;;;;5.22;0.82;;;;;;;;;;5366056;26;20453;-56
2024/04/16 13:53:55;;;;;;;18.55;1.52;;;;;;;;;;5345135;26;20012;-62
2024/04/16 13:56:21;;;;;;;6.07;0.63;;;;;;;;;;5347127;26;19994;-63
2024/04/16 13:58:48;;;;;;;2.40;0.35;;;;;;;;;;5349408;26;20015;-63
2024/04/16 14:01:15;;;;;;;1.88;1.05;;;;;;;;;;5345420;26;20008;-64
2024/04/16 14:03:41;;;;;;;2.17;0.55;;;;;;;;;;5345114;26;20042;-63
2024/04/16 14:06:07;;;;;;;2.88;0.73;;;;;;;;;;5346952;26;20029;-63
2024/04/16 14:08:35;;;;;;;3.17;1.08;;;;;;;;;;5346908;26;20117;-63
2024/04/16 14:11:01;;;;;;;1.20;0.60;;;;;;;;;;5344920;26;20008;-63
2024/04/16 14:13:27;;;;;;;1.52;0.45;;;;;;;;;;5346888;26;20023;-63
2024/04/16 14:15:53;;;;;;;1.15;0.40;;;;;;;;;;5316502;26;20025;-64
2024/04/16 14:18:20;;;;;;;2.67;0.75;;;;;;;;;;5346538;26;20036;-63
2024/04/16 14:20:46;;;;;;;1.20;0.60;;;;;;;;;;5344607;26;20341;-63
2024/04/16 14:23:12;;;;;;;4.00;0.52;;;;;;;;;;5346412;26;20011;-63
2024/04/16 14:25:38;;;;;;;8.02;0.60;;;;;;;;;;5344912;26;19993;-63
2024/04/16 14:28:05;;;;;;;1.60;0.60;;;;;;;;;;5344870;26;20357;-63
2024/04/16 14:30:31;;;;;;;8.70;1.05;;;;;;;;;;5315847;26;20005;-63
2024/04/16 14:32:57;;;;;;;2.60;0.60;;;;;;;;;;5346328;26;20559;-63
2024/04/16 14:35:24;;;;;;;4.32;0.73;;;;;;;;;;5346605;26;20392;-63
2024/04/16 14:37:51;;;;;;;9.02;0.90;;;;;;;;;;5346457;26;20001;-64
2024/04/16 14:40:17;;;;;;;;;;;;;;;;;;5346991;26;20007;-63
2024/04/16 14:42:43;;;;;;;6.88;0.95;;;;;;;;;;5344894;26;19930;-63
2024/04/16 14:45:10;;;;;;;4.70;0.80;;;;;;;;;;5346209;26;19997;-64
2024/04/16 14:47:36;;;;;;;7.88;1.15;;;;;;;;;;5346263;26;20004;-63
2024/04/16 14:50:03;;;;;;;2.08;0.75;;;;;;;;;;5345873;26;20473;-63